18 Jun 2019 03:01 UTC 2019169+03:01 UTC

Overview Datums Bench Marks Data Query Site Visit Daily QC Messages Attributes

130: GBRA Station #2

28° 24' 26" N   96° 42' 43" W
GBRA2
Guadalupe Blanco River Authority (GBRA) GBRA

Station Information

GBRA Station #2
GBRA Station #2
more pictures
 
Station Name:GBRA Station #2
DNR ID:130
Location:28° 24' 26" N, 96° 42' 43" W

Water Level Forecasts

Latest Observations

Series Metric English Marine Observed at
Water Temperature 31.1 °C 88.0 °F 88.0 °F Jun 17 21:54 CDT
00h06m ago
Salinity 1.800 psu 1.800 psu 1.800 psu Jun 17 21:54 CDT
00h06m ago

Maps

GBRA Station #2
All Stations in Area
Entire Network
 

Recent Observations

Date/Time Water
Temp (°F)
Sal (psu)
Jun 17 21:00 CDT 88.2 1.800
Jun 17 20:00 CDT 88.7 1.800
Jun 17 19:00 CDT 88.9 1.800
Jun 17 18:00 CDT 88.9 1.800
Jun 17 17:00 CDT 88.5 1.800
Jun 17 16:00 CDT 87.4 1.900
Jun 17 15:00 CDT 87.4 1.700
Jun 17 14:00 CDT 86.5 1.800
Jun 17 13:00 CDT 85.5 2.000
Jun 17 12:00 CDT 82.4 6.800
Jun 17 11:00 CDT 81.5 7.600
Jun 17 10:00 CDT 81.3 7.600
Jun 17 09:00 CDT 81.7 7.800
Jun 17 08:00 CDT 81.7 8.000
Jun 17 07:00 CDT 81.1 7.300
Jun 17 06:00 CDT 81.7 7.400
Jun 17 05:00 CDT 80.4 6.300
Jun 17 04:00 CDT 82.9 7.000
Jun 17 03:00 CDT 84.9 8.500
Jun 17 02:00 CDT 84.9 8.100
Jun 17 01:00 CDT 85.5 8.600
Jun 17 00:00 CDT 85.8 8.600
Jun 16 23:00 CDT 86.0 8.400
Jun 16 22:00 CDT 86.4 7.800

Historical Data Availability